sensor_id;sensor_type;location;lat;lon;timestamp;temperature;humidity
3275;DHT22;1649;53.672;10.064;2022-09-17T00:00:19;12.10;99.90
3275;DHT22;1649;53.672;10.064;2022-09-17T00:02:45;12.10;99.90
3275;DHT22;1649;53.672;10.064;2022-09-17T00:05:16;12.10;99.90
3275;DHT22;1649;53.672;10.064;2022-09-17T00:07:41;12.00;99.90
3275;DHT22;1649;53.672;10.064;2022-09-17T00:10:07;12.00;99.90
3275;DHT22;1649;53.672;10.064;2022-09-17T00:12:32;11.90;99.90
3275;DHT22;1649;53.672;10.064;2022-09-17T00:14:58;11.90;99.90
3275;DHT22;1649;53.672;10.064;2022-09-17T00:17:23;11.90;99.90
3275;DHT22;1649;53.672;10.064;2022-09-17T00:19:49;11.90;99.90
3275;DHT22;1649;53.672;10.064;2022-09-17T00:22:15;12.00;99.90
3275;DHT22;1649;53.672;10.064;2022-09-17T00:24:40;12.00;99.90
3275;DHT22;1649;53.672;10.064;2022-09-17T00:27:06;12.00;99.90
3275;DHT22;1649;53.672;10.064;2022-09-17T00:29:31;12.00;99.90
3275;DHT22;1649;53.672;10.064;2022-09-17T00:31:57;12.00;99.90
3275;DHT22;1649;53.672;10.064;2022-09-17T00:34:22;12.00;99.90
3275;DHT22;1649;53.672;10.064;2022-09-17T00:36:48;12.00;99.90
3275;DHT22;1649;53.672;10.064;2022-09-17T00:39:13;12.00;99.90
3275;DHT22;1649;53.672;10.064;2022-09-17T00:41:41;11.90;99.90
3275;DHT22;1649;53.672;10.064;2022-09-17T00:47:27;11.80;99.90
3275;DHT22;1649;53.672;10.064;2022-09-17T00:49:58;11.80;99.90
3275;DHT22;1649;53.672;10.064;2022-09-17T00:52:28;11.80;99.90
3275;DHT22;1649;53.672;10.064;2022-09-17T00:55:03;11.80;99.90
3275;DHT22;1649;53.672;10.064;2022-09-17T00:57:30;11.70;99.90
3275;DHT22;1649;53.672;10.064;2022-09-17T00:59:56;11.70;99.90
3275;DHT22;1649;53.672;10.064;2022-09-17T01:02:22;11.70;99.90
3275;DHT22;1649;53.672;10.064;2022-09-17T01:04:48;11.70;99.90
3275;DHT22;1649;53.672;10.064;2022-09-17T01:09:58;11.70;99.90
3275;DHT22;1649;53.672;10.064;2022-09-17T01:15:23;11.70;99.90
3275;DHT22;1649;53.672;10.064;2022-09-17T01:27:08;11.50;99.90
3275;DHT22;1649;53.672;10.064;2022-09-17T01:30:15;11.50;99.90
3275;DHT22;1649;53.672;10.064;2022-09-17T01:38:43;11.40;99.90
3275;DHT22;1649;53.672;10.064;2022-09-17T01:41:39;11.40;99.90
3275;DHT22;1649;53.672;10.064;2022-09-17T01:44:25;11.40;99.90
3275;DHT22;1649;53.672;10.064;2022-09-17T01:47:02;11.50;99.90
3275;DHT22;1649;53.672;10.064;2022-09-17T01:49:30;11.40;99.90
3275;DHT22;1649;53.672;10.064;2022-09-17T01:51:56;11.40;99.90
3275;DHT22;1649;53.672;10.064;2022-09-17T01:54:27;11.50;99.90
3275;DHT22;1649;53.672;10.064;2022-09-17T01:57:01;11.50;99.90
3275;DHT22;1649;53.672;10.064;2022-09-17T01:59:35;11.50;99.90
3275;DHT22;1649;53.672;10.064;2022-09-17T02:02:30;11.50;99.90
3275;DHT22;1649;53.672;10.064;2022-09-17T02:05:02;11.50;99.90
3275;DHT22;1649;53.672;10.064;2022-09-17T02:07:30;11.50;99.90
3275;DHT22;1649;53.672;10.064;2022-09-17T02:10:05;11.50;99.90
3275;DHT22;1649;53.672;10.064;2022-09-17T02:12:37;11.40;99.90
3275;DHT22;1649;53.672;10.064;2022-09-17T02:15:08;11.40;99.90
3275;DHT22;1649;53.672;10.064;2022-09-17T02:17:45;11.30;99.90
3275;DHT22;1649;53.672;10.064;2022-09-17T02:20:13;11.30;99.90
3275;DHT22;1649;53.672;10.064;2022-09-17T02:22:51;11.20;99.90
3275;DHT22;1649;53.672;10.064;2022-09-17T02:25:30;11.20;99.90
3275;DHT22;1649;53.672;10.064;2022-09-17T02:28:15;11.20;99.90
3275;DHT22;1649;53.672;10.064;2022-09-17T02:30:42;11.20;99.90
3275;DHT22;1649;53.672;10.064;2022-09-17T02:33:11;11.10;99.90
3275;DHT22;1649;53.672;10.064;2022-09-17T02:35:38;11.10;99.90
3275;DHT22;1649;53.672;10.064;2022-09-17T02:38:04;11.10;99.90
3275;DHT22;1649;53.672;10.064;2022-09-17T02:40:40;11.20;99.90
3275;DHT22;1649;53.672;10.064;2022-09-17T02:43:35;11.20;99.90
3275;DHT22;1649;53.672;10.064;2022-09-17T02:48:50;11.20;99.90
3275;DHT22;1649;53.672;10.064;2022-09-17T02:51:42;11.30;99.90
3275;DHT22;1649;53.672;10.064;2022-09-17T02:54:16;11.30;99.90
3275;DHT22;1649;53.672;10.064;2022-09-17T02:57:02;11.30;99.90
3275;DHT22;1649;53.672;10.064;2022-09-17T02:59:42;11.20;99.90
3275;DHT22;1649;53.672;10.064;2022-09-17T03:02:21;11.30;99.90
3275;DHT22;1649;53.672;10.064;2022-09-17T03:04:49;11.30;99.90
3275;DHT22;1649;53.672;10.064;2022-09-17T03:07:17;11.40;99.90
3275;DHT22;1649;53.672;10.064;2022-09-17T03:09:43;11.30;99.90
3275;DHT22;1649;53.672;10.064;2022-09-17T03:12:10;11.40;99.90
3275;DHT22;1649;53.672;10.064;2022-09-17T03:14:36;11.40;99.90
3275;DHT22;1649;53.672;10.064;2022-09-17T03:17:01;11.40;99.90
3275;DHT22;1649;53.672;10.064;2022-09-17T03:19:27;11.50;99.90
3275;DHT22;1649;53.672;10.064;2022-09-17T03:21:53;11.50;99.90
3275;DHT22;1649;53.672;10.064;2022-09-17T03:24:18;11.50;99.90
3275;DHT22;1649;53.672;10.064;2022-09-17T03:26:44;11.50;99.90
3275;DHT22;1649;53.672;10.064;2022-09-17T03:29:12;11.50;99.90
3275;DHT22;1649;53.672;10.064;2022-09-17T03:31:37;11.50;99.90
3275;DHT22;1649;53.672;10.064;2022-09-17T03:34:03;11.50;99.90
3275;DHT22;1649;53.672;10.064;2022-09-17T03:36:28;11.50;99.90
3275;DHT22;1649;53.672;10.064;2022-09-17T03:38:55;11.60;99.90
3275;DHT22;1649;53.672;10.064;2022-09-17T03:41:21;11.60;99.90
3275;DHT22;1649;53.672;10.064;2022-09-17T03:43:47;11.60;99.90
3275;DHT22;1649;53.672;10.064;2022-09-17T03:46:12;11.60;99.90
3275;DHT22;1649;53.672;10.064;2022-09-17T03:48:38;11.50;99.90
3275;DHT22;1649;53.672;10.064;2022-09-17T03:51:04;11.50;99.90
3275;DHT22;1649;53.672;10.064;2022-09-17T03:53:30;11.50;99.90
3275;DHT22;1649;53.672;10.064;2022-09-17T03:56:00;11.50;99.90
3275;DHT22;1649;53.672;10.064;2022-09-17T03:58:26;11.40;99.90
3275;DHT22;1649;53.672;10.064;2022-09-17T04:00:52;11.40;99.90
3275;DHT22;1649;53.672;10.064;2022-09-17T04:03:19;11.30;99.90
3275;DHT22;1649;53.672;10.064;2022-09-17T04:05:46;11.30;99.90
3275;DHT22;1649;53.672;10.064;2022-09-17T04:08:11;11.30;99.90
3275;DHT22;1649;53.672;10.064;2022-09-17T04:10:36;11.40;99.90
3275;DHT22;1649;53.672;10.064;2022-09-17T04:13:02;11.40;99.90
3275;DHT22;1649;53.672;10.064;2022-09-17T04:15:27;11.40;99.90
3275;DHT22;1649;53.672;10.064;2022-09-17T04:17:56;11.40;99.90
3275;DHT22;1649;53.672;10.064;2022-09-17T04:20:23;11.50;99.90
3275;DHT22;1649;53.672;10.064;2022-09-17T04:22:49;11.40;99.90
3275;DHT22;1649;53.672;10.064;2022-09-17T04:25:14;11.40;99.90
3275;DHT22;1649;53.672;10.064;2022-09-17T04:27:40;11.40;99.90
3275;DHT22;1649;53.672;10.064;2022-09-17T04:30:06;11.30;99.90
3275;DHT22;1649;53.672;10.064;2022-09-17T04:32:32;11.30;99.90
3275;DHT22;1649;53.672;10.064;2022-09-17T04:34:57;11.30;99.90
3275;DHT22;1649;53.672;10.064;2022-09-17T04:37:23;11.30;99.90
3275;DHT22;1649;53.672;10.064;2022-09-17T04:39:50;11.30;99.90
3275;DHT22;1649;53.672;10.064;2022-09-17T04:42:16;11.30;99.90
3275;DHT22;1649;53.672;10.064;2022-09-17T04:44:41;11.30;99.90
3275;DHT22;1649;53.672;10.064;2022-09-17T04:47:07;11.30;99.90
3275;DHT22;1649;53.672;10.064;2022-09-17T04:49:32;11.40;99.90
3275;DHT22;1649;53.672;10.064;2022-09-17T04:51:58;11.40;99.90
3275;DHT22;1649;53.672;10.064;2022-09-17T04:54:23;11.40;99.90
3275;DHT22;1649;53.672;10.064;2022-09-17T04:56:49;11.30;99.90
3275;DHT22;1649;53.672;10.064;2022-09-17T04:59:14;11.20;99.90
3275;DHT22;1649;53.672;10.064;2022-09-17T05:01:40;11.20;99.90
3275;DHT22;1649;53.672;10.064;2022-09-17T05:04:07;11.20;99.90
3275;DHT22;1649;53.672;10.064;2022-09-17T05:06:33;11.20;99.90
3275;DHT22;1649;53.672;10.064;2022-09-17T05:08:58;11.10;99.90
3275;DHT22;1649;53.672;10.064;2022-09-17T05:11:24;11.10;99.90
3275;DHT22;1649;53.672;10.064;2022-09-17T05:13:50;11.10;99.90
3275;DHT22;1649;53.672;10.064;2022-09-17T05:16:15;11.00;99.90
3275;DHT22;1649;53.672;10.064;2022-09-17T05:18:41;11.10;99.90
3275;DHT22;1649;53.672;10.064;2022-09-17T05:21:06;11.10;99.90
3275;DHT22;1649;53.672;10.064;2022-09-17T05:23:32;11.10;99.90
3275;DHT22;1649;53.672;10.064;2022-09-17T05:25:58;11.10;99.90
3275;DHT22;1649;53.672;10.064;2022-09-17T05:28:25;11.00;99.90
3275;DHT22;1649;53.672;10.064;2022-09-17T05:30:51;11.10;99.90
3275;DHT22;1649;53.672;10.064;2022-09-17T05:33:16;11.20;99.90
3275;DHT22;1649;53.672;10.064;2022-09-17T05:35:43;11.20;99.90
3275;DHT22;1649;53.672;10.064;2022-09-17T05:38:09;11.30;99.90
3275;DHT22;1649;53.672;10.064;2022-09-17T05:40:34;11.20;99.90
3275;DHT22;1649;53.672;10.064;2022-09-17T05:43:03;11.20;99.90
3275;DHT22;1649;53.672;10.064;2022-09-17T05:45:32;11.20;99.90
3275;DHT22;1649;53.672;10.064;2022-09-17T05:47:59;11.30;99.90
3275;DHT22;1649;53.672;10.064;2022-09-17T05:50:26;11.40;99.90
3275;DHT22;1649;53.672;10.064;2022-09-17T05:52:53;11.50;99.90
3275;DHT22;1649;53.672;10.064;2022-09-17T05:55:19;11.50;99.90
3275;DHT22;1649;53.672;10.064;2022-09-17T05:57:49;11.50;99.90
3275;DHT22;1649;53.672;10.064;2022-09-17T06:00:15;11.50;99.90
3275;DHT22;1649;53.672;10.064;2022-09-17T06:02:41;11.40;99.90
3275;DHT22;1649;53.672;10.064;2022-09-17T06:05:07;11.40;99.90
3275;DHT22;1649;53.672;10.064;2022-09-17T06:07:36;11.40;99.90
3275;DHT22;1649;53.672;10.064;2022-09-17T06:10:04;11.70;99.90
3275;DHT22;1649;53.672;10.064;2022-09-17T06:12:29;12.00;99.90
3275;DHT22;1649;53.672;10.064;2022-09-17T06:14:55;12.40;99.90
3275;DHT22;1649;53.672;10.064;2022-09-17T06:17:20;12.60;99.90
3275;DHT22;1649;53.672;10.064;2022-09-17T06:19:46;12.60;99.90
3275;DHT22;1649;53.672;10.064;2022-09-17T06:22:11;12.50;99.90
3275;DHT22;1649;53.672;10.064;2022-09-17T06:24:37;12.30;99.90
3275;DHT22;1649;53.672;10.064;2022-09-17T06:27:02;12.20;99.90
3275;DHT22;1649;53.672;10.064;2022-09-17T06:29:29;12.10;99.90
3275;DHT22;1649;53.672;10.064;2022-09-17T06:31:54;12.00;99.90
3275;DHT22;1649;53.672;10.064;2022-09-17T06:34:20;12.00;99.90
3275;DHT22;1649;53.672;10.064;2022-09-17T06:36:47;11.90;99.90
3275;DHT22;1649;53.672;10.064;2022-09-17T06:39:13;11.80;99.90
3275;DHT22;1649;53.672;10.064;2022-09-17T06:41:40;11.80;99.90
3275;DHT22;1649;53.672;10.064;2022-09-17T06:44:06;11.80;99.90
3275;DHT22;1649;53.672;10.064;2022-09-17T06:46:32;11.70;99.90
3275;DHT22;1649;53.672;10.064;2022-09-17T06:48:57;11.60;99.90
3275;DHT22;1649;53.672;10.064;2022-09-17T06:51:23;11.40;99.90
3275;DHT22;1649;53.672;10.064;2022-09-17T06:53:48;11.50;99.90
3275;DHT22;1649;53.672;10.064;2022-09-17T06:56:14;11.40;99.90
3275;DHT22;1649;53.672;10.064;2022-09-17T06:58:40;11.40;99.90
3275;DHT22;1649;53.672;10.064;2022-09-17T07:01:07;11.40;99.90
3275;DHT22;1649;53.672;10.064;2022-09-17T07:03:33;11.40;99.90
3275;DHT22;1649;53.672;10.064;2022-09-17T07:05:59;11.50;99.90
3275;DHT22;1649;53.672;10.064;2022-09-17T07:08:25;11.60;99.90
3275;DHT22;1649;53.672;10.064;2022-09-17T07:10:54;11.60;99.90
3275;DHT22;1649;53.672;10.064;2022-09-17T07:13:20;11.70;99.90
3275;DHT22;1649;53.672;10.064;2022-09-17T07:15:56;11.80;99.90
3275;DHT22;1649;53.672;10.064;2022-09-17T07:18:22;11.90;99.90
3275;DHT22;1649;53.672;10.064;2022-09-17T07:20:57;12.00;99.90
3275;DHT22;1649;53.672;10.064;2022-09-17T07:23:24;12.30;99.90
3275;DHT22;1649;53.672;10.064;2022-09-17T07:25:56;12.50;99.90
3275;DHT22;1649;53.672;10.064;2022-09-17T07:28:22;12.70;99.90
3275;DHT22;1649;53.672;10.064;2022-09-17T07:30:49;12.80;99.90
3275;DHT22;1649;53.672;10.064;2022-09-17T07:33:16;12.80;99.90
3275;DHT22;1649;53.672;10.064;2022-09-17T07:35:42;13.00;99.90
3275;DHT22;1649;53.672;10.064;2022-09-17T07:38:08;13.40;99.90
3275;DHT22;1649;53.672;10.064;2022-09-17T07:40:33;13.60;99.90
3275;DHT22;1649;53.672;10.064;2022-09-17T07:42:58;13.70;99.90
3275;DHT22;1649;53.672;10.064;2022-09-17T07:45:24;14.00;99.90
3275;DHT22;1649;53.672;10.064;2022-09-17T07:47:50;14.20;99.90
3275;DHT22;1649;53.672;10.064;2022-09-17T07:50:15;14.30;99.90
3275;DHT22;1649;53.672;10.064;2022-09-17T07:52:47;14.20;99.90
3275;DHT22;1649;53.672;10.064;2022-09-17T07:55:13;14.30;99.90
3275;DHT22;1649;53.672;10.064;2022-09-17T07:57:39;14.30;99.90
3275;DHT22;1649;53.672;10.064;2022-09-17T08:00:05;14.20;99.90
3275;DHT22;1649;53.672;10.064;2022-09-17T08:02:31;14.20;99.90
3275;DHT22;1649;53.672;10.064;2022-09-17T08:04:57;13.90;99.90
3275;DHT22;1649;53.672;10.064;2022-09-17T08:07:22;13.70;99.90
3275;DHT22;1649;53.672;10.064;2022-09-17T08:09:48;13.50;99.90
3275;DHT22;1649;53.672;10.064;2022-09-17T08:12:14;13.50;99.90
3275;DHT22;1649;53.672;10.064;2022-09-17T08:14:39;13.40;99.90
3275;DHT22;1649;53.672;10.064;2022-09-17T08:17:08;13.50;99.90
3275;DHT22;1649;53.672;10.064;2022-09-17T08:19:33;13.60;99.90
3275;DHT22;1649;53.672;10.064;2022-09-17T08:21:59;13.70;99.90
3275;DHT22;1649;53.672;10.064;2022-09-17T08:24:24;14.00;99.90
3275;DHT22;1649;53.672;10.064;2022-09-17T08:26:50;14.60;99.90
3275;DHT22;1649;53.672;10.064;2022-09-17T08:29:16;15.50;99.90
3275;DHT22;1649;53.672;10.064;2022-09-17T08:31:41;16.40;99.90
3275;DHT22;1649;53.672;10.064;2022-09-17T08:34:08;17.30;99.90
3275;DHT22;1649;53.672;10.064;2022-09-17T08:36:34;17.70;99.90
3275;DHT22;1649;53.672;10.064;2022-09-17T08:38:59;18.20;99.90
3275;DHT22;1649;53.672;10.064;2022-09-17T08:41:48;18.60;99.90
3275;DHT22;1649;53.672;10.064;2022-09-17T08:44:22;19.20;99.90
3275;DHT22;1649;53.672;10.064;2022-09-17T08:46:51;19.70;99.90
3275;DHT22;1649;53.672;10.064;2022-09-17T08:49:41;19.60;99.90
3275;DHT22;1649;53.672;10.064;2022-09-17T08:52:47;19.50;99.90
3275;DHT22;1649;53.672;10.064;2022-09-17T08:55:32;19.20;99.90
3275;DHT22;1649;53.672;10.064;2022-09-17T08:58:24;19.60;99.90
3275;DHT22;1649;53.672;10.064;2022-09-17T09:00:56;19.30;99.90
3275;DHT22;1649;53.672;10.064;2022-09-17T09:06:14;16.40;99.90
3275;DHT22;1649;53.672;10.064;2022-09-17T09:08:45;15.20;99.90
3275;DHT22;1649;53.672;10.064;2022-09-17T09:11:17;14.20;99.90
3275;DHT22;1649;53.672;10.064;2022-09-17T09:13:53;13.80;99.90
3275;DHT22;1649;53.672;10.064;2022-09-17T09:16:20;13.60;99.90
3275;DHT22;1649;53.672;10.064;2022-09-17T09:18:53;13.30;99.90
3275;DHT22;1649;53.672;10.064;2022-09-17T09:21:34;13.30;99.90
3275;DHT22;1649;53.672;10.064;2022-09-17T09:24:24;13.30;99.90
3275;DHT22;1649;53.672;10.064;2022-09-17T09:27:17;13.20;99.90
3275;DHT22;1649;53.672;10.064;2022-09-17T09:30:03;13.00;99.90
3275;DHT22;1649;53.672;10.064;2022-09-17T09:35:29;12.70;99.90
3275;DHT22;1649;53.672;10.064;2022-09-17T09:38:00;12.80;99.90
3275;DHT22;1649;53.672;10.064;2022-09-17T09:40:54;12.90;99.90
3275;DHT22;1649;53.672;10.064;2022-09-17T09:43:24;12.90;99.90
3275;DHT22;1649;53.672;10.064;2022-09-17T09:46:24;13.00;99.90
3275;DHT22;1649;53.672;10.064;2022-09-17T09:49:19;13.00;99.90
3275;DHT22;1649;53.672;10.064;2022-09-17T09:54:54;14.40;99.90
3275;DHT22;1649;53.672;10.064;2022-09-17T09:57:46;14.70;99.90
3275;DHT22;1649;53.672;10.064;2022-09-17T10:00:38;14.80;99.90
3275;DHT22;1649;53.672;10.064;2022-09-17T10:03:22;14.70;99.90
3275;DHT22;1649;53.672;10.064;2022-09-17T10:05:56;14.90;99.90
3275;DHT22;1649;53.672;10.064;2022-09-17T10:08:23;15.10;99.90
3275;DHT22;1649;53.672;10.064;2022-09-17T10:11:00;15.80;99.90
3275;DHT22;1649;53.672;10.064;2022-09-17T10:13:28;16.10;99.90
3275;DHT22;1649;53.672;10.064;2022-09-17T10:15:54;16.60;99.90
3275;DHT22;1649;53.672;10.064;2022-09-17T10:18:21;17.40;99.90
3275;DHT22;1649;53.672;10.064;2022-09-17T10:20:49;17.70;99.90
3275;DHT22;1649;53.672;10.064;2022-09-17T10:23:14;17.50;99.90
3275;DHT22;1649;53.672;10.064;2022-09-17T10:25:44;17.60;99.90
3275;DHT22;1649;53.672;10.064;2022-09-17T10:30:59;17.90;99.90
3275;DHT22;1649;53.672;10.064;2022-09-17T10:33:28;17.80;99.90
3275;DHT22;1649;53.672;10.064;2022-09-17T10:36:03;17.70;99.90
3275;DHT22;1649;53.672;10.064;2022-09-17T10:38:41;17.50;99.90
3275;DHT22;1649;53.672;10.064;2022-09-17T10:41:20;17.40;99.90
3275;DHT22;1649;53.672;10.064;2022-09-17T10:43:47;17.30;99.90
3275;DHT22;1649;53.672;10.064;2022-09-17T10:46:26;17.20;99.90
3275;DHT22;1649;53.672;10.064;2022-09-17T10:51:47;16.40;99.90
3275;DHT22;1649;53.672;10.064;2022-09-17T10:54:38;16.00;99.90
3275;DHT22;1649;53.672;10.064;2022-09-17T10:57:09;15.70;99.90
3275;DHT22;1649;53.672;10.064;2022-09-17T11:05:54;15.40;99.90
3275;DHT22;1649;53.672;10.064;2022-09-17T11:08:45;15.40;99.90
3275;DHT22;1649;53.672;10.064;2022-09-17T11:17:51;15.60;99.90
3275;DHT22;1649;53.672;10.064;2022-09-17T11:20:27;15.80;99.90
3275;DHT22;1649;53.672;10.064;2022-09-17T11:29:08;15.30;99.90
3275;DHT22;1649;53.672;10.064;2022-09-17T11:34:50;15.90;99.90
3275;DHT22;1649;53.672;10.064;2022-09-17T11:37:31;16.50;99.90
3275;DHT22;1649;53.672;10.064;2022-09-17T11:42:58;16.70;99.90
3275;DHT22;1649;53.672;10.064;2022-09-17T11:45:30;16.90;99.90
3275;DHT22;1649;53.672;10.064;2022-09-17T11:48:21;16.90;99.90
3275;DHT22;1649;53.672;10.064;2022-09-17T11:51:04;16.70;99.90
3275;DHT22;1649;53.672;10.064;2022-09-17T11:53:35;16.60;99.90
3275;DHT22;1649;53.672;10.064;2022-09-17T11:56:22;16.60;99.90
3275;DHT22;1649;53.672;10.064;2022-09-17T11:59:26;16.50;99.90
3275;DHT22;1649;53.672;10.064;2022-09-17T12:02:00;16.60;99.90
3275;DHT22;1649;53.672;10.064;2022-09-17T12:07:16;16.80;99.90
3275;DHT22;1649;53.672;10.064;2022-09-17T12:09:50;16.80;99.90
3275;DHT22;1649;53.672;10.064;2022-09-17T12:12:21;16.80;99.90
3275;DHT22;1649;53.672;10.064;2022-09-17T12:17:22;17.00;99.90
3275;DHT22;1649;53.672;10.064;2022-09-17T12:19:53;17.00;99.90
3275;DHT22;1649;53.672;10.064;2022-09-17T12:22:25;17.10;99.90
3275;DHT22;1649;53.672;10.064;2022-09-17T12:24:52;17.00;99.90
3275;DHT22;1649;53.672;10.064;2022-09-17T12:27:44;16.80;99.90
3275;DHT22;1649;53.672;10.064;2022-09-17T12:30:23;16.70;99.90
3275;DHT22;1649;53.672;10.064;2022-09-17T12:43:58;17.40;99.90
3275;DHT22;1649;53.672;10.064;2022-09-17T12:57:11;17.40;99.90
3275;DHT22;1649;53.672;10.064;2022-09-17T12:59:50;17.50;99.90
3275;DHT22;1649;53.672;10.064;2022-09-17T13:02:26;17.60;99.90
3275;DHT22;1649;53.672;10.064;2022-09-17T13:10:49;17.10;99.90
3275;DHT22;1649;53.672;10.064;2022-09-17T13:13:30;17.40;99.90
3275;DHT22;1649;53.672;10.064;2022-09-17T13:19:03;17.20;99.90
3275;DHT22;1649;53.672;10.064;2022-09-17T13:23:57;17.20;99.90
3275;DHT22;1649;53.672;10.064;2022-09-17T13:26:34;17.10;99.90
3275;DHT22;1649;53.672;10.064;2022-09-17T13:29:00;17.20;99.90
3275;DHT22;1649;53.672;10.064;2022-09-17T13:36:51;17.70;99.90
3275;DHT22;1649;53.672;10.064;2022-09-17T13:39:39;17.80;99.90
3275;DHT22;1649;53.672;10.064;2022-09-17T13:44:52;17.90;99.90
3275;DHT22;1649;53.672;10.064;2022-09-17T13:47:30;17.70;99.90
3275;DHT22;1649;53.672;10.064;2022-09-17T13:50:00;17.50;99.90
3275;DHT22;1649;53.672;10.064;2022-09-17T13:52:44;16.80;99.90
3275;DHT22;1649;53.672;10.064;2022-09-17T13:55:31;15.80;99.90
3275;DHT22;1649;53.672;10.064;2022-09-17T13:57:58;14.50;99.90
3275;DHT22;1649;53.672;10.064;2022-09-17T14:00:49;13.70;99.90
3275;DHT22;1649;53.672;10.064;2022-09-17T14:05:53;12.90;99.90
3275;DHT22;1649;53.672;10.064;2022-09-17T14:08:28;12.80;99.90
3275;DHT22;1649;53.672;10.064;2022-09-17T14:10:57;12.80;99.90
3275;DHT22;1649;53.672;10.064;2022-09-17T14:13:38;12.90;99.90
3275;DHT22;1649;53.672;10.064;2022-09-17T14:21:41;13.10;99.90
3275;DHT22;1649;53.672;10.064;2022-09-17T14:24:22;13.20;99.90
3275;DHT22;1649;53.672;10.064;2022-09-17T14:30:01;13.60;99.90
3275;DHT22;1649;53.672;10.064;2022-09-17T14:35:16;14.00;99.90
3275;DHT22;1649;53.672;10.064;2022-09-17T14:37:48;14.00;99.90
3275;DHT22;1649;53.672;10.064;2022-09-17T14:40:17;14.00;99.90
3275;DHT22;1649;53.672;10.064;2022-09-17T14:42:44;13.80;99.90
3275;DHT22;1649;53.672;10.064;2022-09-17T14:45:16;13.40;99.90
3275;DHT22;1649;53.672;10.064;2022-09-17T14:47:43;13.10;99.90
3275;DHT22;1649;53.672;10.064;2022-09-17T14:50:24;13.00;99.90
3275;DHT22;1649;53.672;10.064;2022-09-17T14:52:51;12.90;99.90
3275;DHT22;1649;53.672;10.064;2022-09-17T14:55:22;12.70;99.90
3275;DHT22;1649;53.672;10.064;2022-09-17T14:57:54;12.80;99.90
3275;DHT22;1649;53.672;10.064;2022-09-17T15:00:26;12.70;99.90
3275;DHT22;1649;53.672;10.064;2022-09-17T15:02:56;12.70;99.90
3275;DHT22;1649;53.672;10.064;2022-09-17T15:05:27;12.90;99.90
3275;DHT22;1649;53.672;10.064;2022-09-17T15:08:11;12.90;99.90
3275;DHT22;1649;53.672;10.064;2022-09-17T15:11:00;13.00;99.90
3275;DHT22;1649;53.672;10.064;2022-09-17T15:13:34;13.20;99.90
3275;DHT22;1649;53.672;10.064;2022-09-17T15:16:03;13.30;99.90
3275;DHT22;1649;53.672;10.064;2022-09-17T15:18:34;13.30;99.90
3275;DHT22;1649;53.672;10.064;2022-09-17T15:21:00;13.30;99.90
3275;DHT22;1649;53.672;10.064;2022-09-17T15:23:27;13.30;99.90
3275;DHT22;1649;53.672;10.064;2022-09-17T15:25:56;13.30;99.90
3275;DHT22;1649;53.672;10.064;2022-09-17T15:28:35;13.40;99.90
3275;DHT22;1649;53.672;10.064;2022-09-17T15:31:04;13.40;99.90
3275;DHT22;1649;53.672;10.064;2022-09-17T15:33:31;13.40;99.90
3275;DHT22;1649;53.672;10.064;2022-09-17T15:36:00;13.30;99.90
3275;DHT22;1649;53.672;10.064;2022-09-17T15:38:28;13.20;99.90
3275;DHT22;1649;53.672;10.064;2022-09-17T15:40:54;13.20;99.90
3275;DHT22;1649;53.672;10.064;2022-09-17T15:43:36;13.30;99.90
3275;DHT22;1649;53.672;10.064;2022-09-17T15:46:25;13.30;99.90
3275;DHT22;1649;53.672;10.064;2022-09-17T15:49:01;13.50;99.90
3275;DHT22;1649;53.672;10.064;2022-09-17T15:51:31;13.60;99.90
3275;DHT22;1649;53.672;10.064;2022-09-17T15:54:04;13.60;99.90
3275;DHT22;1649;53.672;10.064;2022-09-17T15:56:36;13.60;99.90
3275;DHT22;1649;53.672;10.064;2022-09-17T15:59:25;13.60;99.90
3275;DHT22;1649;53.672;10.064;2022-09-17T16:01:53;13.40;99.90
3275;DHT22;1649;53.672;10.064;2022-09-17T16:04:21;13.40;99.90
3275;DHT22;1649;53.672;10.064;2022-09-17T16:06:57;13.40;99.90
3275;DHT22;1649;53.672;10.064;2022-09-17T16:09:48;13.30;99.90
3275;DHT22;1649;53.672;10.064;2022-09-17T16:12:17;13.20;99.90
3275;DHT22;1649;53.672;10.064;2022-09-17T16:14:44;13.20;99.90
3275;DHT22;1649;53.672;10.064;2022-09-17T16:17:42;13.20;99.90
3275;DHT22;1649;53.672;10.064;2022-09-17T16:20:17;13.20;99.90
3275;DHT22;1649;53.672;10.064;2022-09-17T16:22:44;13.20;99.90
3275;DHT22;1649;53.672;10.064;2022-09-17T16:25:12;13.20;99.90
3275;DHT22;1649;53.672;10.064;2022-09-17T16:27:56;13.10;99.90
3275;DHT22;1649;53.672;10.064;2022-09-17T16:30:22;13.10;99.90
3275;DHT22;1649;53.672;10.064;2022-09-17T16:32:49;13.10;99.90
3275;DHT22;1649;53.672;10.064;2022-09-17T16:35:19;13.10;99.90
3275;DHT22;1649;53.672;10.064;2022-09-17T16:37:49;13.00;99.90
3275;DHT22;1649;53.672;10.064;2022-09-17T16:40:15;13.00;99.90
3275;DHT22;1649;53.672;10.064;2022-09-17T16:42:41;13.10;99.90
3275;DHT22;1649;53.672;10.064;2022-09-17T16:45:07;13.00;99.90
3275;DHT22;1649;53.672;10.064;2022-09-17T16:47:38;13.00;99.90
3275;DHT22;1649;53.672;10.064;2022-09-17T16:50:06;13.10;99.90
3275;DHT22;1649;53.672;10.064;2022-09-17T16:52:32;13.10;99.90
3275;DHT22;1649;53.672;10.064;2022-09-17T16:54:57;13.00;99.90
3275;DHT22;1649;53.672;10.064;2022-09-17T16:57:23;13.00;99.90
3275;DHT22;1649;53.672;10.064;2022-09-17T16:59:48;13.00;99.90
3275;DHT22;1649;53.672;10.064;2022-09-17T17:02:14;13.00;99.90
3275;DHT22;1649;53.672;10.064;2022-09-17T17:04:39;13.00;99.90
3275;DHT22;1649;53.672;10.064;2022-09-17T17:07:04;13.00;99.90
3275;DHT22;1649;53.672;10.064;2022-09-17T17:09:30;13.00;99.90
3275;DHT22;1649;53.672;10.064;2022-09-17T17:11:55;13.00;99.90
3275;DHT22;1649;53.672;10.064;2022-09-17T17:14:21;13.00;99.90
3275;DHT22;1649;53.672;10.064;2022-09-17T17:16:46;13.00;99.90
3275;DHT22;1649;53.672;10.064;2022-09-17T17:19:12;12.90;99.90
3275;DHT22;1649;53.672;10.064;2022-09-17T17:21:37;13.00;99.90
3275;DHT22;1649;53.672;10.064;2022-09-17T17:24:03;13.00;99.90
3275;DHT22;1649;53.672;10.064;2022-09-17T17:26:31;13.10;99.90
3275;DHT22;1649;53.672;10.064;2022-09-17T17:28:56;13.10;99.90
3275;DHT22;1649;53.672;10.064;2022-09-17T17:31:22;13.20;99.90
3275;DHT22;1649;53.672;10.064;2022-09-17T17:33:47;13.20;99.90
3275;DHT22;1649;53.672;10.064;2022-09-17T17:36:13;13.20;99.90
3275;DHT22;1649;53.672;10.064;2022-09-17T17:38:38;13.20;99.90
3275;DHT22;1649;53.672;10.064;2022-09-17T17:41:05;13.10;99.90
3275;DHT22;1649;53.672;10.064;2022-09-17T17:43:31;13.20;99.90
3275;DHT22;1649;53.672;10.064;2022-09-17T17:45:56;13.10;99.90
3275;DHT22;1649;53.672;10.064;2022-09-17T17:48:22;13.20;99.90
3275;DHT22;1649;53.672;10.064;2022-09-17T17:50:47;13.20;99.90
3275;DHT22;1649;53.672;10.064;2022-09-17T17:53:13;13.10;99.90
3275;DHT22;1649;53.672;10.064;2022-09-17T17:55:38;13.20;99.90
3275;DHT22;1649;53.672;10.064;2022-09-17T17:58:04;13.20;99.90
3275;DHT22;1649;53.672;10.064;2022-09-17T18:00:29;13.20;99.90
3275;DHT22;1649;53.672;10.064;2022-09-17T18:02:55;13.20;99.90
3275;DHT22;1649;53.672;10.064;2022-09-17T18:05:20;13.10;99.90
3275;DHT22;1649;53.672;10.064;2022-09-17T18:07:46;13.10;99.90
3275;DHT22;1649;53.672;10.064;2022-09-17T18:10:11;13.00;99.90
3275;DHT22;1649;53.672;10.064;2022-09-17T18:12:37;13.00;99.90